sensor_id;sensor_type;location;lat;lon;timestamp;pressure;altitude;pressure_sealevel;temperature;humidity
56330;BME280;42236;48.058;10.632;2023-03-23T00:00:37;94273.13;;;7.63;73.80
56330;BME280;42236;48.058;10.632;2023-03-23T00:03:24;94279.44;;;7.67;73.25
56330;BME280;42236;48.058;10.632;2023-03-23T00:06:12;94282.13;;;7.67;73.58
56330;BME280;42236;48.058;10.632;2023-03-23T00:09:02;94284.22;;;7.62;73.74
56330;BME280;42236;48.058;10.632;2023-03-23T00:11:49;94287.69;;;7.62;73.78
56330;BME280;42236;48.058;10.632;2023-03-23T00:14:36;94287.38;;;7.64;73.37
56330;BME280;42236;48.058;10.632;2023-03-23T00:17:30;94286.38;;;7.68;73.30
56330;BME280;42236;48.058;10.632;2023-03-23T00:20:18;94283.03;;;7.72;73.42
56330;BME280;42236;48.058;10.632;2023-03-23T00:23:04;94284.47;;;7.69;73.21
56330;BME280;42236;48.058;10.632;2023-03-23T00:25:53;94282.13;;;7.67;73.05
56330;BME280;42236;48.058;10.632;2023-03-23T00:28:42;94275.81;;;7.63;73.63
56330;BME280;42236;48.058;10.632;2023-03-23T00:31:28;94274.59;;;7.61;73.32
56330;BME280;42236;48.058;10.632;2023-03-23T00:34:21;94267.09;;;7.54;75.04
56330;BME280;42236;48.058;10.632;2023-03-23T00:37:07;94271.09;;;7.48;74.01
56330;BME280;42236;48.058;10.632;2023-03-23T00:39:53;94262.66;;;7.37;74.80
56330;BME280;42236;48.058;10.632;2023-03-23T00:42:42;94260.97;;;7.33;75.70
56330;BME280;42236;48.058;10.632;2023-03-23T00:45:29;94259.16;;;7.37;75.16
56330;BME280;42236;48.058;10.632;2023-03-23T00:48:15;94262.66;;;7.37;75.10
56330;BME280;42236;48.058;10.632;2023-03-23T00:51:02;94257.28;;;7.37;75.37
56330;BME280;42236;48.058;10.632;2023-03-23T00:53:51;94257.16;;;7.34;75.25
56330;BME280;42236;48.058;10.632;2023-03-23T00:56:37;94260.19;;;7.32;75.23
56330;BME280;42236;48.058;10.632;2023-03-23T00:59:25;94262.53;;;7.34;74.90
56330;BME280;42236;48.058;10.632;2023-03-23T01:02:10;94257.16;;;7.34;74.91
56330;BME280;42236;48.058;10.632;2023-03-23T01:04:56;94258.47;;;7.28;74.96
56330;BME280;42236;48.058;10.632;2023-03-23T01:07:42;94263.72;;;7.24;74.90
56330;BME280;42236;48.058;10.632;2023-03-23T01:10:30;94262.00;;;7.19;75.54
56330;BME280;42236;48.058;10.632;2023-03-23T01:13:18;94264.22;;;7.17;75.42
56330;BME280;42236;48.058;10.632;2023-03-23T01:16:03;94248.13;;;7.17;75.46
56330;BME280;42236;48.058;10.632;2023-03-23T01:18:49;94246.56;;;7.16;75.62
56330;BME280;42236;48.058;10.632;2023-03-23T01:21:35;94242.44;;;7.19;75.40
56330;BME280;42236;48.058;10.632;2023-03-23T01:24:21;94246.38;;;7.21;75.76
56330;BME280;42236;48.058;10.632;2023-03-23T01:27:07;94241.16;;;7.25;75.42
56330;BME280;42236;48.058;10.632;2023-03-23T01:29:52;94237.91;;;7.32;74.66
56330;BME280;42236;48.058;10.632;2023-03-23T01:32:39;94230.13;;;7.39;74.31
56330;BME280;42236;48.058;10.632;2023-03-23T01:35:25;94229.28;;;7.47;73.96
56330;BME280;42236;48.058;10.632;2023-03-23T01:38:10;94232.06;;;7.51;73.68
56330;BME280;42236;48.058;10.632;2023-03-23T01:40:56;94230.28;;;7.55;73.45
56330;BME280;42236;48.058;10.632;2023-03-23T01:44:02;94229.94;;;7.56;74.87
56330;BME280;42236;48.058;10.632;2023-03-23T01:46:49;94230.97;;;7.52;73.88
56330;BME280;42236;48.058;10.632;2023-03-23T01:49:38;94227.69;;;7.46;74.79
56330;BME280;42236;48.058;10.632;2023-03-23T01:52:27;94224.28;;;7.37;75.45
56330;BME280;42236;48.058;10.632;2023-03-23T01:55:14;94221.69;;;7.28;75.77
56330;BME280;42236;48.058;10.632;2023-03-23T01:58:01;94230.72;;;7.23;76.50
56330;BME280;42236;48.058;10.632;2023-03-23T02:00:47;94230.28;;;7.21;76.47
56330;BME280;42236;48.058;10.632;2023-03-23T02:03:34;94221.75;;;7.19;76.36
56330;BME280;42236;48.058;10.632;2023-03-23T02:06:21;94224.44;;;7.19;76.60
56330;BME280;42236;48.058;10.632;2023-03-23T02:09:07;94224.44;;;7.19;76.53
56330;BME280;42236;48.058;10.632;2023-03-23T02:11:54;94208.34;;;7.19;76.43
56330;BME280;42236;48.058;10.632;2023-03-23T02:14:40;94210.56;;;7.17;76.57
56330;BME280;42236;48.058;10.632;2023-03-23T02:17:37;94211.69;;;7.16;77.18
56330;BME280;42236;48.058;10.632;2023-03-23T02:20:58;94216.41;;;7.19;77.82
56330;BME280;42236;48.058;10.632;2023-03-23T02:27:00;94217.31;;;7.23;76.78
56330;BME280;42236;48.058;10.632;2023-03-23T02:33:29;94213.25;;;7.17;80.82
56330;BME280;42236;48.058;10.632;2023-03-23T02:39:44;94207.25;;;7.20;78.44
56330;BME280;42236;48.058;10.632;2023-03-23T02:42:32;94209.28;;;7.23;77.59
56330;BME280;42236;48.058;10.632;2023-03-23T02:45:21;94203.25;;;7.26;77.28
56330;BME280;42236;48.058;10.632;2023-03-23T02:48:09;94209.38;;;7.27;77.29
56330;BME280;42236;48.058;10.632;2023-03-23T02:50:56;94207.81;;;7.26;77.55
56330;BME280;42236;48.058;10.632;2023-03-23T02:53:44;94216.19;;;7.24;77.94
56330;BME280;42236;48.058;10.632;2023-03-23T02:56:31;94217.00;;;7.25;77.86
56330;BME280;42236;48.058;10.632;2023-03-23T02:59:18;94215.56;;;7.28;77.94
56330;BME280;42236;48.058;10.632;2023-03-23T03:11:31;94205.59;;;7.28;80.81
56330;BME280;42236;48.058;10.632;2023-03-23T03:14:49;94208.41;;;7.32;79.92
56330;BME280;42236;48.058;10.632;2023-03-23T03:17:41;94219.13;;;7.32;78.59
56330;BME280;42236;48.058;10.632;2023-03-23T03:20:31;94223.59;;;7.28;79.38
56330;BME280;42236;48.058;10.632;2023-03-23T03:23:19;94210.19;;;7.28;79.15
56330;BME280;42236;48.058;10.632;2023-03-23T03:26:10;94213.44;;;7.33;78.80
56330;BME280;42236;48.058;10.632;2023-03-23T03:28:58;94222.06;;;7.39;78.41
56330;BME280;42236;48.058;10.632;2023-03-23T03:31:44;94221.84;;;7.44;78.81
56330;BME280;42236;48.058;10.632;2023-03-23T03:34:31;94223.44;;;7.45;78.66
56330;BME280;42236;48.058;10.632;2023-03-23T03:37:18;94218.41;;;7.43;78.75
56330;BME280;42236;48.058;10.632;2023-03-23T03:40:09;94217.63;;;7.43;79.27
56330;BME280;42236;48.058;10.632;2023-03-23T03:42:57;94217.72;;;7.46;78.93
56330;BME280;42236;48.058;10.632;2023-03-23T03:45:42;94219.41;;;7.51;78.39
56330;BME280;42236;48.058;10.632;2023-03-23T03:48:28;94234.53;;;7.56;78.57
56330;BME280;42236;48.058;10.632;2023-03-23T03:51:14;94237.34;;;7.59;78.16
56330;BME280;42236;48.058;10.632;2023-03-23T03:53:59;94244.75;;;7.62;78.07
56330;BME280;42236;48.058;10.632;2023-03-23T03:56:45;94248.34;;;7.66;77.73
56330;BME280;42236;48.058;10.632;2023-03-23T03:59:32;94254.59;;;7.70;77.75
56330;BME280;42236;48.058;10.632;2023-03-23T04:02:18;94246.91;;;7.69;78.01
56330;BME280;42236;48.058;10.632;2023-03-23T04:05:05;94251.34;;;7.65;78.50
56330;BME280;42236;48.058;10.632;2023-03-23T04:07:51;94251.25;;;7.61;78.75
56330;BME280;42236;48.058;10.632;2023-03-23T04:10:37;94250.31;;;7.57;78.75
56330;BME280;42236;48.058;10.632;2023-03-23T04:13:23;94248.88;;;7.60;78.56
56330;BME280;42236;48.058;10.632;2023-03-23T04:16:09;94246.50;;;7.58;79.11
56330;BME280;42236;48.058;10.632;2023-03-23T04:18:55;94251.00;;;7.54;79.31
56330;BME280;42236;48.058;10.632;2023-03-23T04:21:41;94254.44;;;7.55;79.28
56330;BME280;42236;48.058;10.632;2023-03-23T04:24:27;94242.47;;;7.52;79.79
56330;BME280;42236;48.058;10.632;2023-03-23T04:27:16;94247.84;;;7.52;79.57
56330;BME280;42236;48.058;10.632;2023-03-23T04:30:02;94240.88;;;7.51;79.50
56330;BME280;42236;48.058;10.632;2023-03-23T04:32:51;94258.22;;;7.54;79.29
56330;BME280;42236;48.058;10.632;2023-03-23T04:35:37;94257.44;;;7.53;79.70
56330;BME280;42236;48.058;10.632;2023-03-23T04:38:23;94257.81;;;7.52;79.74
56330;BME280;42236;48.058;10.632;2023-03-23T04:41:09;94258.13;;;7.50;80.19
56330;BME280;42236;48.058;10.632;2023-03-23T04:43:55;94266.94;;;7.51;79.91
56330;BME280;42236;48.058;10.632;2023-03-23T04:46:42;94245.63;;;7.54;79.79
56330;BME280;42236;48.058;10.632;2023-03-23T04:49:30;94226.47;;;7.56;79.57
56330;BME280;42236;48.058;10.632;2023-03-23T04:52:16;94213.41;;;7.54;80.04
56330;BME280;42236;48.058;10.632;2023-03-23T04:55:02;94209.75;;;7.59;80.16
56330;BME280;42236;48.058;10.632;2023-03-23T04:57:47;94212.97;;;7.64;79.54
56330;BME280;42236;48.058;10.632;2023-03-23T05:00:34;94229.19;;;7.68;80.10
56330;BME280;42236;48.058;10.632;2023-03-23T05:03:20;94213.19;;;7.59;81.22
56330;BME280;42236;48.058;10.632;2023-03-23T05:06:06;94209.75;;;7.59;80.90
56330;BME280;42236;48.058;10.632;2023-03-23T05:08:52;94195.19;;;7.60;81.00
56330;BME280;42236;48.058;10.632;2023-03-23T05:11:37;94197.56;;;7.61;81.00
56330;BME280;42236;48.058;10.632;2023-03-23T05:14:23;94220.38;;;7.67;80.31
56330;BME280;42236;48.058;10.632;2023-03-23T05:17:09;94223.97;;;7.72;80.39
56330;BME280;42236;48.058;10.632;2023-03-23T05:19:55;94215.91;;;7.72;80.51
56330;BME280;42236;48.058;10.632;2023-03-23T05:22:42;94223.97;;;7.72;80.36
56330;BME280;42236;48.058;10.632;2023-03-23T05:25:29;94201.72;;;7.71;80.54
56330;BME280;42236;48.058;10.632;2023-03-23T05:28:15;94199.34;;;7.69;80.81
56330;BME280;42236;48.058;10.632;2023-03-23T05:31:01;94192.06;;;7.70;80.94
56330;BME280;42236;48.058;10.632;2023-03-23T05:33:47;94189.53;;;7.74;80.54
56330;BME280;42236;48.058;10.632;2023-03-23T05:36:33;94185.69;;;7.75;80.62
56330;BME280;42236;48.058;10.632;2023-03-23T05:39:19;94178.22;;;7.80;80.26
56330;BME280;42236;48.058;10.632;2023-03-23T05:42:05;94178.34;;;7.84;79.95
56330;BME280;42236;48.058;10.632;2023-03-23T05:44:51;94172.28;;;7.87;80.10
56330;BME280;42236;48.058;10.632;2023-03-23T05:47:39;94167.06;;;7.90;80.07
56330;BME280;42236;48.058;10.632;2023-03-23T05:50:26;94165.59;;;7.93;79.92
56330;BME280;42236;48.058;10.632;2023-03-23T05:53:11;94166.06;;;7.95;79.90
56330;BME280;42236;48.058;10.632;2023-03-23T05:55:59;94162.69;;;7.98;79.82
56330;BME280;42236;48.058;10.632;2023-03-23T05:58:46;94163.13;;;8.00;79.93
56330;BME280;42236;48.058;10.632;2023-03-23T06:01:31;94176.66;;;8.04;79.66
56330;BME280;42236;48.058;10.632;2023-03-23T06:04:17;94174.56;;;8.09;79.48
56330;BME280;42236;48.058;10.632;2023-03-23T06:07:04;94180.03;;;8.13;79.29
56330;BME280;42236;48.058;10.632;2023-03-23T06:09:50;94183.28;;;8.19;79.14
56330;BME280;42236;48.058;10.632;2023-03-23T06:12:38;94192.38;;;8.26;78.86
56330;BME280;42236;48.058;10.632;2023-03-23T06:15:24;94189.09;;;8.33;78.63
56330;BME280;42236;48.058;10.632;2023-03-23T06:18:10;94184.88;;;8.44;78.01
56330;BME280;42236;48.058;10.632;2023-03-23T06:20:58;94176.78;;;8.57;78.05
56330;BME280;42236;48.058;10.632;2023-03-23T06:23:44;94180.47;;;8.64;78.11
56330;BME280;42236;48.058;10.632;2023-03-23T06:26:33;94178.56;;;8.77;77.68
56330;BME280;42236;48.058;10.632;2023-03-23T06:29:20;94174.50;;;8.83;77.56
56330;BME280;42236;48.058;10.632;2023-03-23T06:32:06;94168.53;;;8.90;77.07
56330;BME280;42236;48.058;10.632;2023-03-23T06:34:51;94165.69;;;8.98;76.75
56330;BME280;42236;48.058;10.632;2023-03-23T06:37:37;94175.56;;;9.07;76.46
56330;BME280;42236;48.058;10.632;2023-03-23T06:40:23;94171.22;;;9.18;76.25
56330;BME280;42236;48.058;10.632;2023-03-23T06:43:09;94169.63;;;9.29;76.12
56330;BME280;42236;48.058;10.632;2023-03-23T06:45:55;94170.69;;;9.40;75.77
56330;BME280;42236;48.058;10.632;2023-03-23T06:48:43;94169.41;;;9.50;75.79
56330;BME280;42236;48.058;10.632;2023-03-23T06:51:29;94175.06;;;9.61;75.48
56330;BME280;42236;48.058;10.632;2023-03-23T06:54:14;94183.78;;;9.70;75.46
56330;BME280;42236;48.058;10.632;2023-03-23T06:57:00;94179.47;;;9.81;74.91
56330;BME280;42236;48.058;10.632;2023-03-23T06:59:47;94178.22;;;9.95;73.93
56330;BME280;42236;48.058;10.632;2023-03-23T07:02:33;94170.50;;;10.09;73.31
56330;BME280;42236;48.058;10.632;2023-03-23T07:05:18;94172.44;;;10.24;73.22
56330;BME280;42236;48.058;10.632;2023-03-23T07:08:05;94180.84;;;10.39;72.59
56330;BME280;42236;48.058;10.632;2023-03-23T07:10:51;94183.09;;;10.53;72.42
56330;BME280;42236;48.058;10.632;2023-03-23T07:13:38;94182.22;;;10.64;71.99
56330;BME280;42236;48.058;10.632;2023-03-23T07:16:23;94182.78;;;10.74;71.83
56330;BME280;42236;48.058;10.632;2023-03-23T07:19:09;94181.81;;;10.82;71.29
56330;BME280;42236;48.058;10.632;2023-03-23T07:21:55;94185.09;;;10.91;70.99
56330;BME280;42236;48.058;10.632;2023-03-23T07:24:42;94191.06;;;11.00;70.70
56330;BME280;42236;48.058;10.632;2023-03-23T07:27:28;94192.09;;;11.12;70.44
56330;BME280;42236;48.058;10.632;2023-03-23T07:30:17;94196.97;;;11.25;70.10
56330;BME280;42236;48.058;10.632;2023-03-23T07:33:06;94189.53;;;11.38;69.83
56330;BME280;42236;48.058;10.632;2023-03-23T07:35:52;94201.72;;;11.51;69.83
56330;BME280;42236;48.058;10.632;2023-03-23T07:38:38;94198.88;;;11.64;69.64
56330;BME280;42236;48.058;10.632;2023-03-23T07:41:24;94202.91;;;11.73;70.06
56330;BME280;42236;48.058;10.632;2023-03-23T07:44:09;94203.47;;;11.83;69.54
56330;BME280;42236;48.058;10.632;2023-03-23T07:46:55;94214.16;;;11.95;69.21
56330;BME280;42236;48.058;10.632;2023-03-23T07:49:41;94206.63;;;12.08;69.06
56330;BME280;42236;48.058;10.632;2023-03-23T07:52:27;94216.91;;;12.22;68.34
56330;BME280;42236;48.058;10.632;2023-03-23T07:55:13;94219.50;;;12.37;68.17
56330;BME280;42236;48.058;10.632;2023-03-23T07:58:02;94218.59;;;12.53;67.95
56330;BME280;42236;48.058;10.632;2023-03-23T08:00:48;94223.06;;;12.68;67.37
56330;BME280;42236;48.058;10.632;2023-03-23T08:03:36;94224.84;;;12.84;66.88
56330;BME280;42236;48.058;10.632;2023-03-23T08:06:23;94229.31;;;12.99;66.14
56330;BME280;42236;48.058;10.632;2023-03-23T08:09:09;94227.97;;;13.12;65.96
56330;BME280;42236;48.058;10.632;2023-03-23T08:11:55;94236.22;;;13.23;66.00
56330;BME280;42236;48.058;10.632;2023-03-23T08:14:41;94240.25;;;13.33;66.15
56330;BME280;42236;48.058;10.632;2023-03-23T08:17:27;94233.06;;;13.44;66.00
56330;BME280;42236;48.058;10.632;2023-03-23T08:20:13;94243.66;;;13.56;65.04
56330;BME280;42236;48.058;10.632;2023-03-23T08:22:59;94242.25;;;13.70;63.79
56330;BME280;42236;48.058;10.632;2023-03-23T08:25:45;94235.38;;;13.79;63.61
56330;BME280;42236;48.058;10.632;2023-03-23T08:28:32;94244.06;;;13.92;62.81
56330;BME280;42236;48.058;10.632;2023-03-23T08:31:18;94247.28;;;14.05;62.51
56330;BME280;42236;48.058;10.632;2023-03-23T08:34:05;94250.50;;;14.14;62.46
56330;BME280;42236;48.058;10.632;2023-03-23T08:36:50;94256.75;;;14.22;62.15
56330;BME280;42236;48.058;10.632;2023-03-23T08:39:38;94263.84;;;14.34;61.39
56330;BME280;42236;48.058;10.632;2023-03-23T08:42:24;94267.84;;;14.47;60.95
56330;BME280;42236;48.058;10.632;2023-03-23T08:45:12;94277.31;;;14.64;60.14
56330;BME280;42236;48.058;10.632;2023-03-23T08:47:58;94272.00;;;14.78;59.90
56330;BME280;42236;48.058;10.632;2023-03-23T08:50:44;94279.09;;;14.90;59.01
56330;BME280;42236;48.058;10.632;2023-03-23T08:53:30;94283.81;;;15.00;58.16
56330;BME280;42236;48.058;10.632;2023-03-23T08:56:16;94287.75;;;15.10;57.33
56330;BME280;42236;48.058;10.632;2023-03-23T08:59:02;94287.81;;;15.17;56.78
56330;BME280;42236;48.058;10.632;2023-03-23T09:01:48;94287.06;;;15.20;54.09
56330;BME280;42236;48.058;10.632;2023-03-23T09:04:34;94276.25;;;15.27;54.03
56330;BME280;42236;48.058;10.632;2023-03-23T09:07:22;94281.31;;;15.32;52.04
56330;BME280;42236;48.058;10.632;2023-03-23T09:10:09;94268.56;;;15.44;51.82
56330;BME280;42236;48.058;10.632;2023-03-23T09:12:56;94279.53;;;15.65;52.53
56330;BME280;42236;48.058;10.632;2023-03-23T09:15:42;94278.91;;;15.86;51.91
56330;BME280;42236;48.058;10.632;2023-03-23T09:18:27;94276.59;;;15.99;51.54
56330;BME280;42236;48.058;10.632;2023-03-23T09:21:13;94278.59;;;16.09;51.56
56330;BME280;42236;48.058;10.632;2023-03-23T09:23:59;94284.44;;;16.15;50.72
56330;BME280;42236;48.058;10.632;2023-03-23T09:26:46;94279.81;;;16.30;50.57
56330;BME280;42236;48.058;10.632;2023-03-23T09:29:33;94288.38;;;16.39;50.36
56330;BME280;42236;48.058;10.632;2023-03-23T09:32:18;94285.66;;;16.35;49.39
56330;BME280;42236;48.058;10.632;2023-03-23T09:35:07;94286.06;;;16.34;48.85
56330;BME280;42236;48.058;10.632;2023-03-23T09:37:55;94281.38;;;16.38;49.32
56330;BME280;42236;48.058;10.632;2023-03-23T09:40:53;94288.00;;;16.37;48.04
56330;BME280;42236;48.058;10.632;2023-03-23T09:46:55;94296.91;;;16.27;46.33
56330;BME280;42236;48.058;10.632;2023-03-23T09:49:57;94300.03;;;16.29;49.23
56330;BME280;42236;48.058;10.632;2023-03-23T09:55:44;94295.28;;;16.04;48.94
56330;BME280;42236;48.058;10.632;2023-03-23T09:58:35;94304.59;;;15.96;48.74
56330;BME280;42236;48.058;10.632;2023-03-23T10:01:31;94306.94;;;15.97;47.56
56330;BME280;42236;48.058;10.632;2023-03-23T10:04:37;94308.13;;;16.07;47.49
56330;BME280;42236;48.058;10.632;2023-03-23T10:07:28;94311.63;;;16.11;48.79
56330;BME280;42236;48.058;10.632;2023-03-23T10:10:14;94307.00;;;16.23;49.00
56330;BME280;42236;48.058;10.632;2023-03-23T10:19:55;94304.00;;;16.63;46.99
56330;BME280;42236;48.058;10.632;2023-03-23T10:38:59;94289.59;;;17.31;46.91
56330;BME280;42236;48.058;10.632;2023-03-23T10:41:47;94297.75;;;17.53;47.76
56330;BME280;42236;48.058;10.632;2023-03-23T10:44:33;94296.13;;;17.80;47.55
56330;BME280;42236;48.058;10.632;2023-03-23T10:47:19;94285.16;;;17.95;46.92
56330;BME280;42236;48.058;10.632;2023-03-23T10:54:32;94289.69;;;18.26;45.19
56330;BME280;42236;48.058;10.632;2023-03-23T11:04:27;94269.34;;;18.42;45.32
56330;BME280;42236;48.058;10.632;2023-03-23T11:07:20;94280.34;;;18.27;44.19
56330;BME280;42236;48.058;10.632;2023-03-23T11:14:31;94280.75;;;18.29;44.06
56330;BME280;42236;48.058;10.632;2023-03-23T11:17:27;94272.41;;;18.51;44.23
56330;BME280;42236;48.058;10.632;2023-03-23T11:20:19;94287.03;;;18.82;45.10
56330;BME280;42236;48.058;10.632;2023-03-23T11:23:23;94282.56;;;19.06;43.86
56330;BME280;42236;48.058;10.632;2023-03-23T11:30:00;94290.41;;;19.04;41.01
56330;BME280;42236;48.058;10.632;2023-03-23T11:32:47;94291.66;;;18.92;43.64
56330;BME280;42236;48.058;10.632;2023-03-23T11:35:36;94290.91;;;18.88;43.35
56330;BME280;42236;48.058;10.632;2023-03-23T11:38:43;94296.00;;;18.90;43.22
56330;BME280;42236;48.058;10.632;2023-03-23T11:41:51;94279.16;;;18.91;40.74
56330;BME280;42236;48.058;10.632;2023-03-23T11:44:42;94282.16;;;19.08;42.53
56330;BME280;42236;48.058;10.632;2023-03-23T11:54:34;94291.72;;;18.85;42.10
56330;BME280;42236;48.058;10.632;2023-03-23T11:57:25;94285.94;;;18.76;43.21
56330;BME280;42236;48.058;10.632;2023-03-23T12:00:15;94292.78;;;18.36;43.38
56330;BME280;42236;48.058;10.632;2023-03-23T12:20:12;94278.72;;;17.17;45.90
56330;BME280;42236;48.058;10.632;2023-03-23T12:41:50;94290.00;;;17.33;44.83
56330;BME280;42236;48.058;10.632;2023-03-23T12:44:53;94289.19;;;17.43;44.64
56330;BME280;42236;48.058;10.632;2023-03-23T12:48:24;94286.09;;;17.34;45.24
56330;BME280;42236;48.058;10.632;2023-03-23T12:54:24;94287.69;;;17.28;45.32
56330;BME280;42236;48.058;10.632;2023-03-23T12:57:25;94284.56;;;17.12;44.42
56330;BME280;42236;48.058;10.632;2023-03-23T13:00:22;94284.19;;;17.10;46.33
56330;BME280;42236;48.058;10.632;2023-03-23T13:03:16;94280.66;;;17.05;44.78
56330;BME280;42236;48.058;10.632;2023-03-23T13:09:55;94274.78;;;17.39;44.81
56330;BME280;42236;48.058;10.632;2023-03-23T13:12:44;94279.84;;;17.44;45.69
56330;BME280;42236;48.058;10.632;2023-03-23T13:15:55;94267.00;;;17.45;45.52
56330;BME280;42236;48.058;10.632;2023-03-23T13:19:20;94259.63;;;17.31;45.53
56330;BME280;42236;48.058;10.632;2023-03-23T13:22:23;94261.13;;;17.46;46.13
56330;BME280;42236;48.058;10.632;2023-03-23T13:25:25;94261.13;;;17.57;46.32
56330;BME280;42236;48.058;10.632;2023-03-23T13:28:47;94254.84;;;17.71;46.11
56330;BME280;42236;48.058;10.632;2023-03-23T13:31:52;94247.03;;;17.80;45.70
56330;BME280;42236;48.058;10.632;2023-03-23T13:34:51;94245.47;;;17.68;46.06
56330;BME280;42236;48.058;10.632;2023-03-23T13:37:41;94250.94;;;17.61;45.46
56330;BME280;42236;48.058;10.632;2023-03-23T13:40:31;94256.38;;;17.68;45.96
56330;BME280;42236;48.058;10.632;2023-03-23T13:43:31;94254.81;;;17.82;44.73
56330;BME280;42236;48.058;10.632;2023-03-23T13:49:15;94244.28;;;17.77;44.93
56330;BME280;42236;48.058;10.632;2023-03-23T14:04:15;94238.97;;;17.34;46.74
56330;BME280;42236;48.058;10.632;2023-03-23T14:07:10;94244.06;;;17.28;45.91
56330;BME280;42236;48.058;10.632;2023-03-23T14:09:56;94242.50;;;17.13;46.95
56330;BME280;42236;48.058;10.632;2023-03-23T14:12:44;94248.00;;;16.95;47.00
56330;BME280;42236;48.058;10.632;2023-03-23T14:15:54;94243.28;;;16.74;46.17
56330;BME280;42236;48.058;10.632;2023-03-23T14:18:41;94238.59;;;16.74;47.47
56330;BME280;42236;48.058;10.632;2023-03-23T14:24:33;94230.03;;;16.40;47.57
56330;BME280;42236;48.058;10.632;2023-03-23T14:27:24;94227.69;;;16.35;48.51
56330;BME280;42236;48.058;10.632;2023-03-23T14:30:38;94243.25;;;16.34;49.02
56330;BME280;42236;48.058;10.632;2023-03-23T14:33:25;94230.81;;;16.37;48.24
56330;BME280;42236;48.058;10.632;2023-03-23T14:36:12;94232.38;;;16.38;48.58
56330;BME280;42236;48.058;10.632;2023-03-23T14:39:13;94244.81;;;16.32;48.67
56330;BME280;42236;48.058;10.632;2023-03-23T14:42:14;94243.25;;;16.31;47.99
56330;BME280;42236;48.058;10.632;2023-03-23T14:45:03;94244.81;;;16.25;48.33
56330;BME280;42236;48.058;10.632;2023-03-23T14:47:56;94243.25;;;16.31;48.37
56330;BME280;42236;48.058;10.632;2023-03-23T14:50:50;94247.53;;;16.25;48.45
56330;BME280;42236;48.058;10.632;2023-03-23T14:53:38;94250.66;;;16.27;48.64
56330;BME280;42236;48.058;10.632;2023-03-23T14:56:33;94246.34;;;16.18;48.84
56330;BME280;42236;48.058;10.632;2023-03-23T14:59:52;94252.16;;;16.13;48.69
56330;BME280;42236;48.058;10.632;2023-03-23T15:02:39;94249.03;;;16.08;49.18
56330;BME280;42236;48.058;10.632;2023-03-23T15:05:34;94250.97;;;16.04;49.19
56330;BME280;42236;48.058;10.632;2023-03-23T15:08:25;94236.22;;;16.08;49.60
56330;BME280;42236;48.058;10.632;2023-03-23T15:14:19;94235.44;;;16.11;48.72
56330;BME280;42236;48.058;10.632;2023-03-23T15:17:31;94239.75;;;16.19;49.17
56330;BME280;42236;48.058;10.632;2023-03-23T15:20:24;94248.31;;;16.21;49.01
56330;BME280;42236;48.058;10.632;2023-03-23T15:23:16;94239.34;;;16.10;49.06
56330;BME280;42236;48.058;10.632;2023-03-23T15:26:05;94243.22;;;16.02;48.96
56330;BME280;42236;48.058;10.632;2023-03-23T15:29:01;94245.91;;;15.95;48.08
56330;BME280;42236;48.058;10.632;2023-03-23T15:31:52;94252.53;;;15.97;49.05
56330;BME280;42236;48.058;10.632;2023-03-23T15:34:39;94241.25;;;15.95;49.37
56330;BME280;42236;48.058;10.632;2023-03-23T15:37:49;94240.84;;;15.97;51.02
56330;BME280;42236;48.058;10.632;2023-03-23T15:40:37;94241.63;;;15.94;49.79
56330;BME280;42236;48.058;10.632;2023-03-23T15:52:08;94241.34;;;15.36;50.19
56330;BME280;42236;48.058;10.632;2023-03-23T15:54:54;94238.59;;;15.29;50.86
56330;BME280;42236;48.058;10.632;2023-03-23T15:57:40;94241.28;;;15.22;51.13
56330;BME280;42236;48.058;10.632;2023-03-23T16:00:28;94241.25;;;15.15;51.77
56330;BME280;42236;48.058;10.632;2023-03-23T16:03:20;94233.44;;;15.10;51.34
56330;BME280;42236;48.058;10.632;2023-03-23T16:06:21;94227.16;;;14.99;52.26
56330;BME280;42236;48.058;10.632;2023-03-23T16:09:13;94225.59;;;14.98;52.18
56330;BME280;42236;48.058;10.632;2023-03-23T16:11:59;94233.31;;;14.92;52.57
56330;BME280;42236;48.058;10.632;2023-03-23T16:14:44;94224.31;;;14.81;52.98
56330;BME280;42236;48.058;10.632;2023-03-23T16:17:30;94223.47;;;14.69;53.64
56330;BME280;42236;48.058;10.632;2023-03-23T16:20:20;94227.66;;;14.60;54.28
56330;BME280;42236;48.058;10.632;2023-03-23T16:23:08;94228.31;;;14.49;54.57
56330;BME280;42236;48.058;10.632;2023-03-23T16:25:54;94230.66;;;14.51;54.83
56330;BME280;42236;48.058;10.632;2023-03-23T16:28:41;94227.53;;;14.49;54.96
56330;BME280;42236;48.058;10.632;2023-03-23T16:31:27;94225.22;;;14.47;54.92
56330;BME280;42236;48.058;10.632;2023-03-23T16:34:12;94222.09;;;14.45;55.51
56330;BME280;42236;48.058;10.632;2023-03-23T16:36:58;94214.75;;;14.49;55.57
56330;BME280;42236;48.058;10.632;2023-03-23T16:39:44;94220.16;;;14.49;55.51
56330;BME280;42236;48.058;10.632;2023-03-23T16:42:30;94212.31;;;14.37;55.97
56330;BME280;42236;48.058;10.632;2023-03-23T16:45:16;94210.34;;;14.34;55.87
56330;BME280;42236;48.058;10.632;2023-03-23T16:48:02;94207.22;;;14.32;55.93
56330;BME280;42236;48.058;10.632;2023-03-23T16:50:50;94216.91;;;14.29;56.04
56330;BME280;42236;48.058;10.632;2023-03-23T16:53:36;94211.81;;;14.21;56.19
56330;BME280;42236;48.058;10.632;2023-03-23T16:56:22;94214.47;;;14.17;56.30
56330;BME280;42236;48.058;10.632;2023-03-23T16:59:07;94221.00;;;14.13;56.44
56330;BME280;42236;48.058;10.632;2023-03-23T17:01:53;94212.88;;;14.13;56.33
56330;BME280;42236;48.058;10.632;2023-03-23T17:04:45;94213.56;;;14.06;56.81
56330;BME280;42236;48.058;10.632;2023-03-23T17:07:31;94218.19;;;14.02;56.29
56330;BME280;42236;48.058;10.632;2023-03-23T17:10:17;94215.84;;;14.00;56.55
56330;BME280;42236;48.058;10.632;2023-03-23T17:13:03;94223.56;;;13.98;56.58
56330;BME280;42236;48.058;10.632;2023-03-23T17:15:51;94228.22;;;13.98;56.66
56330;BME280;42236;48.058;10.632;2023-03-23T17:18:37;94217.72;;;13.93;56.92